Sanpo Maru No.5 — JL6343 — position and weather

sailwx.info

Track history (hours):
 
Tides and Currents Weather Stations Pressure Air Temp Water Temp Dewpoint Dewpoint Depression Visibility Wind Speed Wind Dir Waves Ship Positions

Sanpo Maru No.5

Last reported at 2017-Jul-20 09:00 UTC. Time now 2017-Jul-24 22:40 UTC.
Position N 34°37' E 134°55'.

Length 71 m; draft 4.5 m.

Type: Ship. MMSI: 431500283.

Date/timePositionNaut miles runAvg speedWind from/ knotsBaromVisibWave heightAir tempDewpointWater temp
2017-Jul-20 09:00N 34°37' E 134°55'713.1
2017-Jul-20 08:29N 34°36' E 135°03'5 9.9
2017-Jul-20 07:58N 34°32' E 135°04'1611.4
2017-Jul-20 06:34N 34°16' E 134°59'110.6
2017-Jul-20 06:27N 34°15' E 134°59'4 9.4
2017-Jul-20 05:59N 34°11' E 134°59'2 0.0
2017-Jul-18 10:16N 34°12' E 134°59'10 9.5
2017-Jul-18 09:10N 34°22' E 135°02'210.0
2017-Jul-18 09:00N 34°23' E 135°04'5 9.8
2017-Jul-18 08:30N 34°26' E 135°09'5 9.5
2017-Jul-18 08:00N 34°28' E 135°14'5 9.4
2017-Jul-18 07:30N 34°30' E 135°19'3 0.8
2017-Jul-18 04:18N 34°29' E 135°22'2 3.1
2017-Jul-18 03:47N 34°29' E 135°20'3 9.9
2017-Jul-18 03:30N 34°29' E 135°17'5 9.6
2017-Jul-18 02:59N 34°27' E 135°11'6 9.4
2017-Jul-18 02:23N 34°23' E 135°06'4 9.3
2017-Jul-18 01:57N 34°21' E 135°03'5 8.7
2017-Jul-18 01:20N 34°16' E 134°59'2 6.9
2017-Jul-18 01:00N 34°14' E 134°59'4 7.8
2017-Jul-18 00:30N 34°10' E 134°59'  
Track history (hours):
 
Tides and Currents Weather Stations Pressure Air Temp Water Temp Dewpoint Dewpoint Depression Visibility Wind Speed Wind Dir Waves Ship Positions

Sanpo Maru No.5

Last reported at 2017-Jul-20 09:00 UTC. Time now 2017-Jul-24 22:40 UTC.
Position N 34°37' E 134°55'.

Length 71 m; draft 4.5 m.

Type: Ship. MMSI: 431500283.

Date/timePositionNaut miles runAvg speedWind from/ knotsBaromVisibWave heightAir tempDewpointWater temp
2017-Jul-20 09:00N 34°37' E 134°55'713.1
2017-Jul-20 08:29N 34°36' E 135°03'5 9.9
2017-Jul-20 07:58N 34°32' E 135°04'1611.4
2017-Jul-20 06:34N 34°16' E 134°59'110.6
2017-Jul-20 06:27N 34°15' E 134°59'4 9.4
2017-Jul-20 05:59N 34°11' E 134°59'2 0.0
2017-Jul-18 10:16N 34°12' E 134°59'10 9.5
2017-Jul-18 09:10N 34°22' E 135°02'210.0
2017-Jul-18 09:00N 34°23' E 135°04'5 9.8
2017-Jul-18 08:30N 34°26' E 135°09'5 9.5
2017-Jul-18 08:00N 34°28' E 135°14'5 9.4
2017-Jul-18 07:30N 34°30' E 135°19'3 0.8
2017-Jul-18 04:18N 34°29' E 135°22'2 3.1
2017-Jul-18 03:47N 34°29' E 135°20'3 9.9
2017-Jul-18 03:30N 34°29' E 135°17'5 9.6
2017-Jul-18 02:59N 34°27' E 135°11'6 9.4
2017-Jul-18 02:23N 34°23' E 135°06'4 9.3
2017-Jul-18 01:57N 34°21' E 135°03'5 8.7
2017-Jul-18 01:20N 34°16' E 134°59'2 6.9
2017-Jul-18 01:00N 34°14' E 134°59'4 7.8
2017-Jul-18 00:30N 34°10' E 134°59'  

Dump ship's entire track history